sensor_id;sensor_type;location;lat;lon;timestamp;pressure;altitude;pressure_sealevel;temperature;humidity
30554;BME280;17335;50.720;7.452;2023-06-24T00:02:01;100216.06;;;14.94;100.00
30554;BME280;17335;50.720;7.452;2023-06-24T00:04:28;100214.94;;;14.96;100.00
30554;BME280;17335;50.720;7.452;2023-06-24T00:06:55;100206.53;;;14.99;100.00
30554;BME280;17335;50.720;7.452;2023-06-24T00:09:28;100217.63;;;14.96;100.00
30554;BME280;17335;50.720;7.452;2023-06-24T00:11:58;100208.44;;;14.89;100.00
30554;BME280;17335;50.720;7.452;2023-06-24T00:14:26;100213.44;;;14.84;100.00
30554;BME280;17335;50.720;7.452;2023-06-24T00:16:54;100211.59;;;14.85;100.00
30554;BME280;17335;50.720;7.452;2023-06-24T00:19:23;100211.72;;;14.83;100.00
30554;BME280;17335;50.720;7.452;2023-06-24T00:21:50;100211.03;;;14.81;100.00
30554;BME280;17335;50.720;7.452;2023-06-24T00:24:20;100203.69;;;14.73;100.00
30554;BME280;17335;50.720;7.452;2023-06-24T00:26:52;100214.81;;;14.70;100.00
30554;BME280;17335;50.720;7.452;2023-06-24T00:29:19;100215.09;;;14.67;100.00
30554;BME280;17335;50.720;7.452;2023-06-24T00:31:45;100217.25;;;14.63;100.00
30554;BME280;17335;50.720;7.452;2023-06-24T00:34:12;100211.69;;;14.65;100.00
30554;BME280;17335;50.720;7.452;2023-06-24T00:36:39;100212.69;;;14.64;100.00
30554;BME280;17335;50.720;7.452;2023-06-24T00:39:06;100215.41;;;14.64;100.00
30554;BME280;17335;50.720;7.452;2023-06-24T00:41:34;100212.00;;;14.62;100.00
30554;BME280;17335;50.720;7.452;2023-06-24T00:44:01;100216.56;;;14.61;100.00
30554;BME280;17335;50.720;7.452;2023-06-24T00:46:28;100221.97;;;14.52;100.00
30554;BME280;17335;50.720;7.452;2023-06-24T00:48:56;100225.09;;;14.47;100.00
30554;BME280;17335;50.720;7.452;2023-06-24T00:51:22;100221.28;;;14.40;100.00
30554;BME280;17335;50.720;7.452;2023-06-24T00:53:58;100216.03;;;14.38;100.00
30554;BME280;17335;50.720;7.452;2023-06-24T00:56:31;100218.88;;;14.37;100.00
30554;BME280;17335;50.720;7.452;2023-06-24T00:59:00;100205.28;;;14.29;100.00
30554;BME280;17335;50.720;7.452;2023-06-24T01:01:30;100201.84;;;14.26;100.00
30554;BME280;17335;50.720;7.452;2023-06-24T01:04:00;100212.38;;;14.30;100.00
30554;BME280;17335;50.720;7.452;2023-06-24T01:06:28;100214.25;;;14.29;100.00
30554;BME280;17335;50.720;7.452;2023-06-24T01:08:56;100210.69;;;14.29;100.00
30554;BME280;17335;50.720;7.452;2023-06-24T01:11:23;100217.78;;;14.30;100.00
30554;BME280;17335;50.720;7.452;2023-06-24T01:13:50;100214.38;;;14.28;100.00
30554;BME280;17335;50.720;7.452;2023-06-24T01:18:59;100211.81;;;14.26;100.00
30554;BME280;17335;50.720;7.452;2023-06-24T01:21:43;100214.66;;;14.24;100.00
30554;BME280;17335;50.720;7.452;2023-06-24T01:27:23;100220.34;;;14.21;100.00
30554;BME280;17335;50.720;7.452;2023-06-24T01:30:18;100218.97;;;14.17;100.00
30554;BME280;17335;50.720;7.452;2023-06-24T01:32:50;100220.41;;;14.02;100.00
30554;BME280;17335;50.720;7.452;2023-06-24T01:35:29;100225.41;;;13.97;100.00
30554;BME280;17335;50.720;7.452;2023-06-24T01:38:01;100216.59;;;13.95;100.00
30554;BME280;17335;50.720;7.452;2023-06-24T01:40:36;100222.16;;;13.93;100.00
30554;BME280;17335;50.720;7.452;2023-06-24T01:43:08;100227.25;;;13.96;100.00
30554;BME280;17335;50.720;7.452;2023-06-24T01:45:40;100221.72;;;13.98;100.00
30554;BME280;17335;50.720;7.452;2023-06-24T01:48:15;100213.63;;;13.98;100.00
30554;BME280;17335;50.720;7.452;2023-06-24T01:50:45;100212.59;;;13.99;100.00
30554;BME280;17335;50.720;7.452;2023-06-24T01:53:17;100216.00;;;14.01;100.00
30554;BME280;17335;50.720;7.452;2023-06-24T01:55:46;100216.75;;;14.03;100.00
30554;BME280;17335;50.720;7.452;2023-06-24T01:58:15;100220.13;;;14.05;100.00
30554;BME280;17335;50.720;7.452;2023-06-24T02:00:43;100221.25;;;14.12;100.00
30554;BME280;17335;50.720;7.452;2023-06-24T02:03:10;100217.16;;;14.08;100.00
30554;BME280;17335;50.720;7.452;2023-06-24T02:05:39;100217.56;;;14.03;100.00
30554;BME280;17335;50.720;7.452;2023-06-24T02:08:09;100221.72;;;13.98;100.00
30554;BME280;17335;50.720;7.452;2023-06-24T02:10:38;100214.47;;;13.88;100.00
30554;BME280;17335;50.720;7.452;2023-06-24T02:13:08;100205.81;;;13.85;100.00
30554;BME280;17335;50.720;7.452;2023-06-24T02:15:36;100207.41;;;13.78;100.00
30554;BME280;17335;50.720;7.452;2023-06-24T02:18:05;100202.56;;;13.72;100.00
30554;BME280;17335;50.720;7.452;2023-06-24T02:20:32;100202.88;;;13.68;100.00
30554;BME280;17335;50.720;7.452;2023-06-24T02:23:01;100195.06;;;13.65;100.00
30554;BME280;17335;50.720;7.452;2023-06-24T02:25:29;100202.31;;;13.55;100.00
30554;BME280;17335;50.720;7.452;2023-06-24T02:27:55;100208.81;;;13.53;100.00
30554;BME280;17335;50.720;7.452;2023-06-24T02:30:23;100209.56;;;13.55;100.00
30554;BME280;17335;50.720;7.452;2023-06-24T02:32:51;100213.66;;;13.59;100.00
30554;BME280;17335;50.720;7.452;2023-06-24T02:35:17;100221.34;;;13.63;100.00
30554;BME280;17335;50.720;7.452;2023-06-24T02:37:44;100223.59;;;13.68;100.00
30554;BME280;17335;50.720;7.452;2023-06-24T02:40:11;100218.75;;;13.72;100.00
30554;BME280;17335;50.720;7.452;2023-06-24T02:42:38;100214.22;;;13.72;100.00
30554;BME280;17335;50.720;7.452;2023-06-24T02:45:05;100219.91;;;13.69;100.00
30554;BME280;17335;50.720;7.452;2023-06-24T02:47:33;100214.78;;;13.66;100.00
30554;BME280;17335;50.720;7.452;2023-06-24T02:50:01;100211.38;;;13.64;100.00
30554;BME280;17335;50.720;7.452;2023-06-24T02:52:28;100217.63;;;13.64;100.00
30554;BME280;17335;50.720;7.452;2023-06-24T02:54:58;100211.34;;;13.83;100.00
30554;BME280;17335;50.720;7.452;2023-06-24T02:57:26;100218.19;;;13.68;100.00
30554;BME280;17335;50.720;7.452;2023-06-24T02:59:52;100215.06;;;13.63;100.00
30554;BME280;17335;50.720;7.452;2023-06-24T03:02:19;100222.31;;;13.62;100.00
30554;BME280;17335;50.720;7.452;2023-06-24T03:04:48;100228.84;;;13.60;100.00
30554;BME280;17335;50.720;7.452;2023-06-24T03:07:17;100226.88;;;13.52;100.00
30554;BME280;17335;50.720;7.452;2023-06-24T03:09:47;100227.59;;;13.44;100.00
30554;BME280;17335;50.720;7.452;2023-06-24T03:12:14;100231.41;;;13.42;100.00
30554;BME280;17335;50.720;7.452;2023-06-24T03:14:42;100237.50;;;13.44;100.00
30554;BME280;17335;50.720;7.452;2023-06-24T03:17:08;100240.47;;;13.41;100.00
30554;BME280;17335;50.720;7.452;2023-06-24T03:19:35;100234.38;;;13.39;100.00
30554;BME280;17335;50.720;7.452;2023-06-24T03:22:03;100238.66;;;13.41;100.00
30554;BME280;17335;50.720;7.452;2023-06-24T03:24:30;100236.81;;;13.42;100.00
30554;BME280;17335;50.720;7.452;2023-06-24T03:26:56;100229.56;;;13.42;100.00
30554;BME280;17335;50.720;7.452;2023-06-24T03:29:23;100229.56;;;13.42;100.00
30554;BME280;17335;50.720;7.452;2023-06-24T03:31:49;100229.56;;;13.42;100.00
30554;BME280;17335;50.720;7.452;2023-06-24T03:34:16;100216.81;;;13.44;100.00
30554;BME280;17335;50.720;7.452;2023-06-24T03:36:43;100223.75;;;13.47;100.00
30554;BME280;17335;50.720;7.452;2023-06-24T03:39:09;100221.88;;;13.47;100.00
30554;BME280;17335;50.720;7.452;2023-06-24T03:41:36;100226.16;;;13.50;100.00
30554;BME280;17335;50.720;7.452;2023-06-24T03:44:02;100227.00;;;13.50;100.00
30554;BME280;17335;50.720;7.452;2023-06-24T03:46:29;100225.16;;;13.51;100.00
30554;BME280;17335;50.720;7.452;2023-06-24T03:49:00;100230.97;;;13.56;100.00
30554;BME280;17335;50.720;7.452;2023-06-24T03:51:27;100225.88;;;13.53;100.00
30554;BME280;17335;50.720;7.452;2023-06-24T03:53:53;100226.72;;;13.54;100.00
30554;BME280;17335;50.720;7.452;2023-06-24T03:56:20;100234.53;;;13.57;100.00
30554;BME280;17335;50.720;7.452;2023-06-24T03:58:47;100230.69;;;13.59;100.00
30554;BME280;17335;50.720;7.452;2023-06-24T04:01:14;100234.22;;;13.60;100.00
30554;BME280;17335;50.720;7.452;2023-06-24T04:03:41;100237.66;;;13.62;100.00
30554;BME280;17335;50.720;7.452;2023-06-24T04:06:09;100238.09;;;13.67;100.00
30554;BME280;17335;50.720;7.452;2023-06-24T04:08:36;100232.69;;;13.67;100.00
30554;BME280;17335;50.720;7.452;2023-06-24T04:11:05;100228.97;;;13.68;100.00
30554;BME280;17335;50.720;7.452;2023-06-24T04:13:33;100226.72;;;13.73;100.00
30554;BME280;17335;50.720;7.452;2023-06-24T04:16:01;100241.03;;;13.83;100.00
30554;BME280;17335;50.720;7.452;2023-06-24T04:18:28;100228.84;;;13.89;100.00
30554;BME280;17335;50.720;7.452;2023-06-24T04:20:54;100236.91;;;13.99;100.00
30554;BME280;17335;50.720;7.452;2023-06-24T04:23:21;100228.94;;;14.07;100.00
30554;BME280;17335;50.720;7.452;2023-06-24T04:25:47;100231.63;;;14.17;100.00
30554;BME280;17335;50.720;7.452;2023-06-24T04:28:14;100231.44;;;14.28;100.00
30554;BME280;17335;50.720;7.452;2023-06-24T04:30:40;100230.41;;;14.39;100.00
30554;BME280;17335;50.720;7.452;2023-06-24T04:33:08;100237.44;;;14.59;100.00
30554;BME280;17335;50.720;7.452;2023-06-24T04:35:35;100228.63;;;14.67;100.00
30554;BME280;17335;50.720;7.452;2023-06-24T04:38:02;100234.06;;;14.85;100.00
30554;BME280;17335;50.720;7.452;2023-06-24T04:40:28;100237.25;;;14.98;100.00
30554;BME280;17335;50.720;7.452;2023-06-24T04:42:56;100236.75;;;15.13;100.00
30554;BME280;17335;50.720;7.452;2023-06-24T04:45:23;100247.59;;;15.13;100.00
30554;BME280;17335;50.720;7.452;2023-06-24T04:47:50;100240.25;;;15.23;100.00
30554;BME280;17335;50.720;7.452;2023-06-24T04:50:17;100239.63;;;15.29;100.00
30554;BME280;17335;50.720;7.452;2023-06-24T04:52:43;100235.97;;;15.38;100.00
30554;BME280;17335;50.720;7.452;2023-06-24T04:55:11;100229.66;;;15.84;100.00
30554;BME280;17335;50.720;7.452;2023-06-24T04:57:37;100219.91;;;17.45;100.00
30554;BME280;17335;50.720;7.452;2023-06-24T05:00:05;100179.63;;;19.33;100.00
30554;BME280;17335;50.720;7.452;2023-06-24T05:02:32;100155.53;;;20.36;100.00
30554;BME280;17335;50.720;7.452;2023-06-24T05:04:58;100146.84;;;20.77;100.00
30554;BME280;17335;50.720;7.452;2023-06-24T05:07:25;100147.91;;;20.97;100.00
30554;BME280;17335;50.720;7.452;2023-06-24T05:09:53;100144.03;;;21.50;100.00
30554;BME280;17335;50.720;7.452;2023-06-24T05:12:19;100147.84;;;21.77;100.00
30554;BME280;17335;50.720;7.452;2023-06-24T05:14:50;100146.34;;;21.75;100.00
30554;BME280;17335;50.720;7.452;2023-06-24T05:17:21;100148.06;;;22.10;100.00
30554;BME280;17335;50.720;7.452;2023-06-24T05:19:48;100150.16;;;22.08;100.00
30554;BME280;17335;50.720;7.452;2023-06-24T05:22:14;100151.38;;;21.99;100.00
30554;BME280;17335;50.720;7.452;2023-06-24T05:24:41;100141.88;;;21.67;100.00
30554;BME280;17335;50.720;7.452;2023-06-24T05:27:08;100149.28;;;21.30;100.00
30554;BME280;17335;50.720;7.452;2023-06-24T05:29:34;100153.91;;;21.08;100.00
30554;BME280;17335;50.720;7.452;2023-06-24T05:32:01;100149.44;;;20.85;100.00
30554;BME280;17335;50.720;7.452;2023-06-24T05:34:30;100159.53;;;20.55;100.00
30554;BME280;17335;50.720;7.452;2023-06-24T05:36:57;100160.97;;;20.66;100.00
30554;BME280;17335;50.720;7.452;2023-06-24T05:39:24;100157.34;;;20.80;100.00
30554;BME280;17335;50.720;7.452;2023-06-24T05:41:51;100154.22;;;20.98;100.00
30554;BME280;17335;50.720;7.452;2023-06-24T05:44:18;100158.13;;;21.10;100.00
30554;BME280;17335;50.720;7.452;2023-06-24T05:46:47;100160.34;;;21.22;100.00
30554;BME280;17335;50.720;7.452;2023-06-24T05:49:13;100153.72;;;21.31;100.00
30554;BME280;17335;50.720;7.452;2023-06-24T05:51:40;100154.78;;;21.51;100.00
30554;BME280;17335;50.720;7.452;2023-06-24T05:54:06;100145.06;;;21.49;100.00
30554;BME280;17335;50.720;7.452;2023-06-24T05:56:37;100142.06;;;21.65;100.00
30554;BME280;17335;50.720;7.452;2023-06-24T05:59:05;100141.63;;;21.90;100.00
30554;BME280;17335;50.720;7.452;2023-06-24T06:01:32;100137.63;;;21.64;100.00
30554;BME280;17335;50.720;7.452;2023-06-24T06:03:58;100143.31;;;21.41;100.00
30554;BME280;17335;50.720;7.452;2023-06-24T06:06:25;100143.25;;;21.56;100.00
30554;BME280;17335;50.720;7.452;2023-06-24T06:08:52;100145.06;;;21.27;100.00
30554;BME280;17335;50.720;7.452;2023-06-24T06:11:18;100140.91;;;21.53;100.00
30554;BME280;17335;50.720;7.452;2023-06-24T06:13:45;100142.41;;;21.56;100.00
30554;BME280;17335;50.720;7.452;2023-06-24T06:16:11;100136.09;;;21.55;100.00
30554;BME280;17335;50.720;7.452;2023-06-24T06:18:37;100140.88;;;22.03;100.00
30554;BME280;17335;50.720;7.452;2023-06-24T06:21:04;100137.69;;;21.99;100.00
30554;BME280;17335;50.720;7.452;2023-06-24T06:23:30;100159.81;;;22.04;100.00
30554;BME280;17335;50.720;7.452;2023-06-24T06:25:57;100155.69;;;22.50;100.00
30554;BME280;17335;50.720;7.452;2023-06-24T06:28:24;100154.53;;;22.79;100.00
30554;BME280;17335;50.720;7.452;2023-06-24T06:30:50;100157.47;;;22.29;100.00
30554;BME280;17335;50.720;7.452;2023-06-24T06:33:17;100158.97;;;22.32;100.00
30554;BME280;17335;50.720;7.452;2023-06-24T06:35:44;100165.03;;;22.27;100.00
30554;BME280;17335;50.720;7.452;2023-06-24T06:38:10;100165.03;;;21.99;100.00
30554;BME280;17335;50.720;7.452;2023-06-24T06:40:37;100168.78;;;22.26;100.00
30554;BME280;17335;50.720;7.452;2023-06-24T06:43:05;100163.84;;;22.43;100.00
30554;BME280;17335;50.720;7.452;2023-06-24T06:45:32;100159.91;;;22.53;100.00
30554;BME280;17335;50.720;7.452;2023-06-24T06:48:00;100164.78;;;22.57;100.00
30554;BME280;17335;50.720;7.452;2023-06-24T06:50:27;100158.69;;;22.62;100.00
30554;BME280;17335;50.720;7.452;2023-06-24T06:52:53;100163.19;;;22.76;100.00
30554;BME280;17335;50.720;7.452;2023-06-24T06:55:20;100164.00;;;22.70;100.00
30554;BME280;17335;50.720;7.452;2023-06-24T06:57:47;100168.34;;;22.58;100.00
30554;BME280;17335;50.720;7.452;2023-06-24T07:00:14;100158.88;;;22.60;100.00
30554;BME280;17335;50.720;7.452;2023-06-24T07:02:40;100162.31;;;22.76;100.00
30554;BME280;17335;50.720;7.452;2023-06-24T07:05:07;100169.31;;;22.85;100.00
30554;BME280;17335;50.720;7.452;2023-06-24T07:07:39;100168.69;;;22.90;100.00
30554;BME280;17335;50.720;7.452;2023-06-24T07:10:07;100176.09;;;22.96;100.00
30554;BME280;17335;50.720;7.452;2023-06-24T07:12:33;100162.81;;;22.93;100.00
30554;BME280;17335;50.720;7.452;2023-06-24T07:15:00;100168.72;;;22.96;100.00
30554;BME280;17335;50.720;7.452;2023-06-24T07:17:27;100168.78;;;23.10;100.00
30554;BME280;17335;50.720;7.452;2023-06-24T07:19:53;100171.09;;;23.06;100.00
30554;BME280;17335;50.720;7.452;2023-06-24T07:22:26;100178.06;;;23.15;100.00
30554;BME280;17335;50.720;7.452;2023-06-24T07:24:53;100180.81;;;23.22;100.00
30554;BME280;17335;50.720;7.452;2023-06-24T07:27:19;100176.84;;;23.31;100.00
30554;BME280;17335;50.720;7.452;2023-06-24T07:29:46;100178.94;;;23.36;100.00
30554;BME280;17335;50.720;7.452;2023-06-24T07:32:13;100177.28;;;23.35;100.00
30554;BME280;17335;50.720;7.452;2023-06-24T07:34:39;100178.94;;;23.36;100.00
30554;BME280;17335;50.720;7.452;2023-06-24T07:37:06;100176.84;;;23.38;100.00
30554;BME280;17335;50.720;7.452;2023-06-24T07:39:48;100173.03;;;23.32;100.00
30554;BME280;17335;50.720;7.452;2023-06-24T07:42:15;100174.75;;;23.40;100.00
30554;BME280;17335;50.720;7.452;2023-06-24T07:44:46;100179.19;;;23.54;100.00
30554;BME280;17335;50.720;7.452;2023-06-24T07:47:14;100179.59;;;23.51;100.00
30554;BME280;17335;50.720;7.452;2023-06-24T07:49:40;100167.16;;;23.42;100.00
30554;BME280;17335;50.720;7.452;2023-06-24T07:52:07;100170.13;;;23.47;100.00
30554;BME280;17335;50.720;7.452;2023-06-24T07:54:34;100180.03;;;23.62;100.00
30554;BME280;17335;50.720;7.452;2023-06-24T07:57:01;100180.47;;;23.72;100.00
30554;BME280;17335;50.720;7.452;2023-06-24T07:59:27;100176.03;;;23.71;100.00
30554;BME280;17335;50.720;7.452;2023-06-24T08:01:54;100188.69;;;23.72;100.00
30554;BME280;17335;50.720;7.452;2023-06-24T08:04:21;100186.56;;;23.47;100.00
30554;BME280;17335;50.720;7.452;2023-06-24T08:06:47;100177.50;;;23.47;100.00
30554;BME280;17335;50.720;7.452;2023-06-24T08:09:16;100173.94;;;23.73;100.00
30554;BME280;17335;50.720;7.452;2023-06-24T08:11:43;100172.69;;;23.82;100.00
30554;BME280;17335;50.720;7.452;2023-06-24T08:14:11;100176.66;;;24.06;100.00
30554;BME280;17335;50.720;7.452;2023-06-24T08:16:37;100172.22;;;24.12;100.00
30554;BME280;17335;50.720;7.452;2023-06-24T08:19:04;100165.47;;;24.21;100.00
30554;BME280;17335;50.720;7.452;2023-06-24T08:21:30;100162.09;;;24.19;100.00
30554;BME280;17335;50.720;7.452;2023-06-24T08:23:57;100172.44;;;24.17;100.00
30554;BME280;17335;50.720;7.452;2023-06-24T08:29:28;100159.59;;;24.11;100.00
30554;BME280;17335;50.720;7.452;2023-06-24T08:31:55;100151.16;;;23.86;100.00
30554;BME280;17335;50.720;7.452;2023-06-24T08:34:21;100160.88;;;23.82;100.00
30554;BME280;17335;50.720;7.452;2023-06-24T08:36:52;100163.38;;;24.03;100.00
30554;BME280;17335;50.720;7.452;2023-06-24T08:39:18;100154.50;;;24.21;100.00
30554;BME280;17335;50.720;7.452;2023-06-24T08:41:45;100153.41;;;24.22;100.00
30554;BME280;17335;50.720;7.452;2023-06-24T08:44:11;100150.91;;;24.21;100.00
30554;BME280;17335;50.720;7.452;2023-06-24T08:46:38;100151.16;;;24.12;100.00
30554;BME280;17335;50.720;7.452;2023-06-24T08:52:03;100149.84;;;24.15;100.00
30554;BME280;17335;50.720;7.452;2023-06-24T08:54:33;100142.03;;;24.25;100.00
30554;BME280;17335;50.720;7.452;2023-06-24T08:57:02;100144.34;;;24.28;100.00
30554;BME280;17335;50.720;7.452;2023-06-24T08:59:33;100153.16;;;24.44;100.00
30554;BME280;17335;50.720;7.452;2023-06-24T09:02:00;100157.34;;;24.60;100.00
30554;BME280;17335;50.720;7.452;2023-06-24T09:04:27;100148.84;;;24.75;100.00
30554;BME280;17335;50.720;7.452;2023-06-24T09:06:53;100149.38;;;24.97;100.00
30554;BME280;17335;50.720;7.452;2023-06-24T09:09:21;100153.03;;;25.22;100.00
30554;BME280;17335;50.720;7.452;2023-06-24T09:11:56;100139.81;;;25.06;100.00
30554;BME280;17335;50.720;7.452;2023-06-24T09:14:24;100145.00;;;25.21;100.00
30554;BME280;17335;50.720;7.452;2023-06-24T09:16:53;100143.69;;;25.30;100.00
30554;BME280;17335;50.720;7.452;2023-06-24T09:19:23;100130.41;;;25.27;100.00
30554;BME280;17335;50.720;7.452;2023-06-24T09:21:50;100132.41;;;25.45;100.00
30554;BME280;17335;50.720;7.452;2023-06-24T09:24:20;100128.25;;;25.36;100.00
30554;BME280;17335;50.720;7.452;2023-06-24T09:26:47;100128.63;;;25.64;100.00
30554;BME280;17335;50.720;7.452;2023-06-24T09:29:14;100118.06;;;25.87;100.00
30554;BME280;17335;50.720;7.452;2023-06-24T09:31:48;100117.56;;;25.46;100.00
30554;BME280;17335;50.720;7.452;2023-06-24T09:34:16;100116.56;;;25.66;100.00
30554;BME280;17335;50.720;7.452;2023-06-24T09:36:44;100114.25;;;25.88;100.00
30554;BME280;17335;50.720;7.452;2023-06-24T09:39:11;100106.97;;;26.18;100.00
30554;BME280;17335;50.720;7.452;2023-06-24T09:41:59;100098.16;;;26.28;100.00
30554;BME280;17335;50.720;7.452;2023-06-24T09:44:27;100099.38;;;26.51;100.00
30554;BME280;17335;50.720;7.452;2023-06-24T09:46:54;100095.94;;;26.55;100.00
30554;BME280;17335;50.720;7.452;2023-06-24T09:49:22;100093.31;;;26.30;100.00
30554;BME280;17335;50.720;7.452;2023-06-24T09:51:53;100096.97;;;25.80;100.00
30554;BME280;17335;50.720;7.452;2023-06-24T09:54:21;100103.69;;;25.85;100.00
30554;BME280;17335;50.720;7.452;2023-06-24T09:56:49;100099.34;;;26.20;100.00
30554;BME280;17335;50.720;7.452;2023-06-24T09:59:21;100090.72;;;26.47;100.00
30554;BME280;17335;50.720;7.452;2023-06-24T10:01:53;100087.25;;;26.89;100.00
30554;BME280;17335;50.720;7.452;2023-06-24T10:04:20;100089.94;;;27.07;100.00
30554;BME280;17335;50.720;7.452;2023-06-24T10:06:50;100082.38;;;27.45;100.00
30554;BME280;17335;50.720;7.452;2023-06-24T10:09:17;100077.34;;;27.54;100.00
30554;BME280;17335;50.720;7.452;2023-06-24T10:11:46;100076.97;;;27.38;99.24
30554;BME280;17335;50.720;7.452;2023-06-24T10:14:14;100080.84;;;27.49;100.00
30554;BME280;17335;50.720;7.452;2023-06-24T10:16:42;100076.00;;;27.80;100.00
30554;BME280;17335;50.720;7.452;2023-06-24T10:19:09;100071.47;;;27.74;98.83
30554;BME280;17335;50.720;7.452;2023-06-24T10:24:32;100067.88;;;27.07;99.90
30554;BME280;17335;50.720;7.452;2023-06-24T10:27:05;100066.56;;;26.98;98.58
30554;BME280;17335;50.720;7.452;2023-06-24T10:29:37;100058.09;;;26.81;100.00
30554;BME280;17335;50.720;7.452;2023-06-24T10:37:01;100058.84;;;26.88;100.00
30554;BME280;17335;50.720;7.452;2023-06-24T10:42:31;100046.31;;;26.62;100.00
30554;BME280;17335;50.720;7.452;2023-06-24T10:47:39;100042.09;;;26.90;100.00
30554;BME280;17335;50.720;7.452;2023-06-24T10:50:06;100030.28;;;27.25;100.00
30554;BME280;17335;50.720;7.452;2023-06-24T10:52:38;100036.22;;;27.28;92.53
30554;BME280;17335;50.720;7.452;2023-06-24T10:55:06;100036.25;;;26.98;97.13
30554;BME280;17335;50.720;7.452;2023-06-24T10:57:33;100031.34;;;26.39;100.00
30554;BME280;17335;50.720;7.452;2023-06-24T11:00:03;100029.56;;;26.45;100.00
30554;BME280;17335;50.720;7.452;2023-06-24T11:02:30;100029.47;;;26.70;100.00
30554;BME280;17335;50.720;7.452;2023-06-24T11:05:01;100020.72;;;27.27;100.00
30554;BME280;17335;50.720;7.452;2023-06-24T11:07:33;100027.31;;;27.85;96.48
30554;BME280;17335;50.720;7.452;2023-06-24T11:10:12;100016.41;;;28.02;89.79
30554;BME280;17335;50.720;7.452;2023-06-24T11:12:41;100016.22;;;28.21;89.74
30554;BME280;17335;50.720;7.452;2023-06-24T11:15:09;100011.28;;;28.52;96.83
30554;BME280;17335;50.720;7.452;2023-06-24T11:17:37;100010.28;;;28.70;81.79
30554;BME280;17335;50.720;7.452;2023-06-24T11:22:36;99995.66;;;29.03;80.40
30554;BME280;17335;50.720;7.452;2023-06-24T11:25:03;99994.66;;;29.09;72.86
30554;BME280;17335;50.720;7.452;2023-06-24T11:27:31;99997.00;;;29.51;73.82
30554;BME280;17335;50.720;7.452;2023-06-24T11:30:00;99987.25;;;29.66;76.98
30554;BME280;17335;50.720;7.452;2023-06-24T11:32:39;99989.97;;;29.44;64.67
30554;BME280;17335;50.720;7.452;2023-06-24T11:35:08;99986.50;;;29.53;70.44
30554;BME280;17335;50.720;7.452;2023-06-24T11:37:41;99990.22;;;29.42;70.92
30554;BME280;17335;50.720;7.452;2023-06-24T11:40:09;99987.03;;;29.50;66.03
30554;BME280;17335;50.720;7.452;2023-06-24T11:42:40;99979.41;;;29.41;70.06
30554;BME280;17335;50.720;7.452;2023-06-24T11:45:08;99983.63;;;29.09;84.24
30554;BME280;17335;50.720;7.452;2023-06-24T11:47:39;99979.56;;;28.66;67.37
30554;BME280;17335;50.720;7.452;2023-06-24T11:50:07;99979.31;;;28.39;83.19
30554;BME280;17335;50.720;7.452;2023-06-24T11:52:47;99970.78;;;28.40;75.60
30554;BME280;17335;50.720;7.452;2023-06-24T12:00:29;99971.03;;;28.39;77.85
30554;BME280;17335;50.720;7.452;2023-06-24T12:02:58;99958.63;;;28.70;81.02
30554;BME280;17335;50.720;7.452;2023-06-24T12:05:28;99950.13;;;29.06;79.32
30554;BME280;17335;50.720;7.452;2023-06-24T12:07:56;99956.38;;;29.35;63.87
30554;BME280;17335;50.720;7.452;2023-06-24T12:10:24;99943.41;;;29.18;63.25
30554;BME280;17335;50.720;7.452;2023-06-24T12:12:51;99940.38;;;29.37;63.35
30554;BME280;17335;50.720;7.452;2023-06-24T12:15:17;99944.63;;;29.67;59.27
30554;BME280;17335;50.720;7.452;2023-06-24T12:17:44;99942.00;;;29.55;58.34
30554;BME280;17335;50.720;7.452;2023-06-24T12:20:11;99936.59;;;29.65;58.77
30554;BME280;17335;50.720;7.452;2023-06-24T12:22:42;99936.28;;;29.62;61.52
30554;BME280;17335;50.720;7.452;2023-06-24T12:25:09;99935.88;;;29.92;71.87
30554;BME280;17335;50.720;7.452;2023-06-24T12:27:36;99933.41;;;29.96;60.49
30554;BME280;17335;50.720;7.452;2023-06-24T12:30:06;99929.41;;;29.64;60.25
30554;BME280;17335;50.720;7.452;2023-06-24T12:32:35;99926.31;;;29.22;58.27
30554;BME280;17335;50.720;7.452;2023-06-24T12:35:05;99930.31;;;29.31;63.72
30554;BME280;17335;50.720;7.452;2023-06-24T12:37:33;99916.41;;;29.65;66.35
30554;BME280;17335;50.720;7.452;2023-06-24T12:40:01;99920.78;;;29.83;58.99
30554;BME280;17335;50.720;7.452;2023-06-24T12:42:28;99913.09;;;29.85;58.33
30554;BME280;17335;50.720;7.452;2023-06-24T12:44:54;99921.38;;;30.07;66.12
30554;BME280;17335;50.720;7.452;2023-06-24T12:47:23;99924.34;;;30.27;65.03
30554;BME280;17335;50.720;7.452;2023-06-24T12:49:49;99917.91;;;30.22;52.60
30554;BME280;17335;50.720;7.452;2023-06-24T12:52:16;99928.78;;;30.28;59.92
30554;BME280;17335;50.720;7.452;2023-06-24T12:54:43;99927.66;;;30.24;59.19
30554;BME280;17335;50.720;7.452;2023-06-24T12:57:10;99909.75;;;30.10;53.53
30554;BME280;17335;50.720;7.452;2023-06-24T12:59:40;99920.59;;;29.89;51.93
30554;BME280;17335;50.720;7.452;2023-06-24T13:02:06;99916.47;;;30.14;62.70
30554;BME280;17335;50.720;7.452;2023-06-24T13:04:33;99919.91;;;30.26;55.96
30554;BME280;17335;50.720;7.452;2023-06-24T13:06:59;99917.06;;;30.43;54.46
30554;BME280;17335;50.720;7.452;2023-06-24T13:09:26;99914.16;;;30.06;52.79
30554;BME280;17335;50.720;7.452;2023-06-24T13:11:52;99915.00;;;29.84;56.33
30554;BME280;17335;50.720;7.452;2023-06-24T13:14:19;99919.28;;;30.19;57.25
30554;BME280;17335;50.720;7.452;2023-06-24T13:16:45;99904.34;;;30.47;55.27
30554;BME280;17335;50.720;7.452;2023-06-24T13:19:12;99907.13;;;30.80;60.22
30554;BME280;17335;50.720;7.452;2023-06-24T13:21:42;99910.72;;;31.13;61.26